sensor_id;sensor_type;location;lat;lon;timestamp;temperature;humidity
56240;DHT22;42154;51.992;5.896;2022-11-15T00:01:01;8.50;99.90
56240;DHT22;42154;51.992;5.896;2022-11-15T00:03:53;8.50;99.90
56240;DHT22;42154;51.992;5.896;2022-11-15T00:06:37;8.50;99.90
56240;DHT22;42154;51.992;5.896;2022-11-15T00:09:21;8.50;99.90
56240;DHT22;42154;51.992;5.896;2022-11-15T00:12:05;8.60;99.90
56240;DHT22;42154;51.992;5.896;2022-11-15T00:14:49;8.50;99.90
56240;DHT22;42154;51.992;5.896;2022-11-15T00:17:33;8.60;99.90
56240;DHT22;42154;51.992;5.896;2022-11-15T00:20:17;8.60;99.90
56240;DHT22;42154;51.992;5.896;2022-11-15T00:23:03;8.50;99.90
56240;DHT22;42154;51.992;5.896;2022-11-15T00:25:55;8.60;99.90
56240;DHT22;42154;51.992;5.896;2022-11-15T00:28:41;8.60;99.90
56240;DHT22;42154;51.992;5.896;2022-11-15T00:31:25;8.60;99.90
56240;DHT22;42154;51.992;5.896;2022-11-15T00:34:10;8.70;99.90
56240;DHT22;42154;51.992;5.896;2022-11-15T00:36:54;8.70;99.90
56240;DHT22;42154;51.992;5.896;2022-11-15T00:39:38;8.70;99.90
56240;DHT22;42154;51.992;5.896;2022-11-15T00:42:22;8.70;99.90
56240;DHT22;42154;51.992;5.896;2022-11-15T00:45:07;8.70;99.90
56240;DHT22;42154;51.992;5.896;2022-11-15T00:47:52;8.70;99.90
56240;DHT22;42154;51.992;5.896;2022-11-15T00:50:36;8.70;99.90
56240;DHT22;42154;51.992;5.896;2022-11-15T00:53:20;8.70;99.90
56240;DHT22;42154;51.992;5.896;2022-11-15T00:56:04;8.70;99.90
56240;DHT22;42154;51.992;5.896;2022-11-15T00:58:49;8.70;99.90
56240;DHT22;42154;51.992;5.896;2022-11-15T01:01:33;8.70;99.90
56240;DHT22;42154;51.992;5.896;2022-11-15T01:04:17;8.70;99.90
56240;DHT22;42154;51.992;5.896;2022-11-15T01:07:01;8.80;99.90
56240;DHT22;42154;51.992;5.896;2022-11-15T01:09:45;8.80;99.90
56240;DHT22;42154;51.992;5.896;2022-11-15T01:12:29;8.80;99.90
56240;DHT22;42154;51.992;5.896;2022-11-15T01:15:13;8.80;99.90
56240;DHT22;42154;51.992;5.896;2022-11-15T01:17:57;8.80;99.90
56240;DHT22;42154;51.992;5.896;2022-11-15T01:20:41;8.80;99.90
56240;DHT22;42154;51.992;5.896;2022-11-15T01:23:26;8.80;99.90
56240;DHT22;42154;51.992;5.896;2022-11-15T01:26:12;8.80;99.90
56240;DHT22;42154;51.992;5.896;2022-11-15T01:28:56;8.90;99.90
56240;DHT22;42154;51.992;5.896;2022-11-15T01:31:40;8.80;99.90
56240;DHT22;42154;51.992;5.896;2022-11-15T01:34:25;8.90;99.90
56240;DHT22;42154;51.992;5.896;2022-11-15T01:37:09;9.00;99.90
56240;DHT22;42154;51.992;5.896;2022-11-15T01:39:53;9.00;99.90
56240;DHT22;42154;51.992;5.896;2022-11-15T01:42:38;9.00;99.90
56240;DHT22;42154;51.992;5.896;2022-11-15T01:45:22;9.00;99.90
56240;DHT22;42154;51.992;5.896;2022-11-15T01:48:08;9.10;99.90
56240;DHT22;42154;51.992;5.896;2022-11-15T01:50:54;9.00;99.90
56240;DHT22;42154;51.992;5.896;2022-11-15T01:53:40;9.20;99.90
56240;DHT22;42154;51.992;5.896;2022-11-15T01:56:28;9.10;99.90
56240;DHT22;42154;51.992;5.896;2022-11-15T01:59:14;9.20;99.90
56240;DHT22;42154;51.992;5.896;2022-11-15T02:01:58;9.20;99.90
56240;DHT22;42154;51.992;5.896;2022-11-15T02:04:45;9.20;99.90
56240;DHT22;42154;51.992;5.896;2022-11-15T02:07:31;9.20;99.90
56240;DHT22;42154;51.992;5.896;2022-11-15T02:10:25;9.20;99.90
56240;DHT22;42154;51.992;5.896;2022-11-15T02:13:10;9.30;99.90
56240;DHT22;42154;51.992;5.896;2022-11-15T02:18:52;9.30;99.90
56240;DHT22;42154;51.992;5.896;2022-11-15T02:25:17;9.40;99.90
56240;DHT22;42154;51.992;5.896;2022-11-15T02:28:34;9.40;99.90
56240;DHT22;42154;51.992;5.896;2022-11-15T02:31:36;9.40;99.90
56240;DHT22;42154;51.992;5.896;2022-11-15T02:34:33;9.40;99.90
56240;DHT22;42154;51.992;5.896;2022-11-15T02:43:22;9.40;99.90
56240;DHT22;42154;51.992;5.896;2022-11-15T02:49:53;9.40;99.90
56240;DHT22;42154;51.992;5.896;2022-11-15T02:52:38;9.40;99.90
56240;DHT22;42154;51.992;5.896;2022-11-15T02:55:34;9.40;99.90
56240;DHT22;42154;51.992;5.896;2022-11-15T03:02:02;9.50;99.90
56240;DHT22;42154;51.992;5.896;2022-11-15T03:04:57;9.50;99.90
56240;DHT22;42154;51.992;5.896;2022-11-15T03:11:02;9.50;99.90
56240;DHT22;42154;51.992;5.896;2022-11-15T03:14:00;9.60;99.90
56240;DHT22;42154;51.992;5.896;2022-11-15T03:17:23;9.60;99.90
56240;DHT22;42154;51.992;5.896;2022-11-15T03:20:08;9.60;99.90
56240;DHT22;42154;51.992;5.896;2022-11-15T03:22:55;9.60;99.90
56240;DHT22;42154;51.992;5.896;2022-11-15T03:25:48;9.70;99.90
56240;DHT22;42154;51.992;5.896;2022-11-15T03:28:45;9.70;99.90
56240;DHT22;42154;51.992;5.896;2022-11-15T03:31:38;9.70;99.90
56240;DHT22;42154;51.992;5.896;2022-11-15T03:34:41;9.80;99.90
56240;DHT22;42154;51.992;5.896;2022-11-15T03:37:54;9.80;99.90
56240;DHT22;42154;51.992;5.896;2022-11-15T03:40:48;9.80;99.90
56240;DHT22;42154;51.992;5.896;2022-11-15T03:49:55;9.90;99.90
56240;DHT22;42154;51.992;5.896;2022-11-15T03:52:41;9.90;99.90
56240;DHT22;42154;51.992;5.896;2022-11-15T03:55:26;9.90;99.90
56240;DHT22;42154;51.992;5.896;2022-11-15T03:58:10;10.00;99.90
56240;DHT22;42154;51.992;5.896;2022-11-15T04:00:54;10.00;99.90
56240;DHT22;42154;51.992;5.896;2022-11-15T04:03:38;10.10;99.90
56240;DHT22;42154;51.992;5.896;2022-11-15T04:06:23;10.10;99.90
56240;DHT22;42154;51.992;5.896;2022-11-15T04:09:08;10.20;99.90
56240;DHT22;42154;51.992;5.896;2022-11-15T04:11:52;10.20;99.90
56240;DHT22;42154;51.992;5.896;2022-11-15T04:14:36;10.30;99.90
56240;DHT22;42154;51.992;5.896;2022-11-15T04:17:20;10.30;99.90
56240;DHT22;42154;51.992;5.896;2022-11-15T04:20:05;10.40;99.90
56240;DHT22;42154;51.992;5.896;2022-11-15T04:23:20;10.40;99.90
56240;DHT22;42154;51.992;5.896;2022-11-15T04:26:24;10.50;99.90
56240;DHT22;42154;51.992;5.896;2022-11-15T04:29:08;10.50;99.90
56240;DHT22;42154;51.992;5.896;2022-11-15T04:32:11;10.50;99.90
56240;DHT22;42154;51.992;5.896;2022-11-15T04:34:55;10.60;99.90
56240;DHT22;42154;51.992;5.896;2022-11-15T04:37:39;10.60;99.90
56240;DHT22;42154;51.992;5.896;2022-11-15T04:40:23;10.60;99.90
56240;DHT22;42154;51.992;5.896;2022-11-15T04:43:07;10.70;99.90
56240;DHT22;42154;51.992;5.896;2022-11-15T04:45:51;10.70;99.90
56240;DHT22;42154;51.992;5.896;2022-11-15T04:48:36;10.80;99.90
56240;DHT22;42154;51.992;5.896;2022-11-15T04:51:20;10.80;99.90
56240;DHT22;42154;51.992;5.896;2022-11-15T04:54:04;10.80;99.90
56240;DHT22;42154;51.992;5.896;2022-11-15T04:56:49;10.80;99.90
56240;DHT22;42154;51.992;5.896;2022-11-15T04:59:33;10.90;99.90
56240;DHT22;42154;51.992;5.896;2022-11-15T05:02:17;10.90;99.90
56240;DHT22;42154;51.992;5.896;2022-11-15T05:05:01;10.90;99.90
56240;DHT22;42154;51.992;5.896;2022-11-15T05:07:46;11.00;99.90
56240;DHT22;42154;51.992;5.896;2022-11-15T05:10:30;11.00;99.90
56240;DHT22;42154;51.992;5.896;2022-11-15T05:13:15;11.00;99.90
56240;DHT22;42154;51.992;5.896;2022-11-15T05:15:59;11.00;99.90
56240;DHT22;42154;51.992;5.896;2022-11-15T05:18:43;11.10;99.90
56240;DHT22;42154;51.992;5.896;2022-11-15T05:21:28;11.10;99.90
56240;DHT22;42154;51.992;5.896;2022-11-15T05:24:12;11.10;99.90
56240;DHT22;42154;51.992;5.896;2022-11-15T05:26:56;11.20;99.90
56240;DHT22;42154;51.992;5.896;2022-11-15T05:29:40;11.20;99.90
56240;DHT22;42154;51.992;5.896;2022-11-15T05:32:25;11.20;99.90
56240;DHT22;42154;51.992;5.896;2022-11-15T05:35:13;11.20;99.90
56240;DHT22;42154;51.992;5.896;2022-11-15T05:37:58;11.30;99.90
56240;DHT22;42154;51.992;5.896;2022-11-15T05:40:43;11.30;99.90
56240;DHT22;42154;51.992;5.896;2022-11-15T05:43:29;11.30;99.90
56240;DHT22;42154;51.992;5.896;2022-11-15T05:46:15;11.30;99.90
56240;DHT22;42154;51.992;5.896;2022-11-15T05:49:00;11.30;99.90
56240;DHT22;42154;51.992;5.896;2022-11-15T05:51:46;11.30;99.90
56240;DHT22;42154;51.992;5.896;2022-11-15T05:54:32;11.30;99.90
56240;DHT22;42154;51.992;5.896;2022-11-15T05:57:17;11.30;99.90
56240;DHT22;42154;51.992;5.896;2022-11-15T06:00:02;11.30;99.90
56240;DHT22;42154;51.992;5.896;2022-11-15T06:02:47;11.30;99.90
56240;DHT22;42154;51.992;5.896;2022-11-15T06:05:31;11.40;99.90
56240;DHT22;42154;51.992;5.896;2022-11-15T06:08:15;11.40;99.90
56240;DHT22;42154;51.992;5.896;2022-11-15T06:11:04;11.40;99.90
56240;DHT22;42154;51.992;5.896;2022-11-15T06:13:49;11.40;99.90
56240;DHT22;42154;51.992;5.896;2022-11-15T06:16:33;11.40;99.90
56240;DHT22;42154;51.992;5.896;2022-11-15T06:19:17;11.40;99.90
56240;DHT22;42154;51.992;5.896;2022-11-15T06:22:01;11.40;99.90
56240;DHT22;42154;51.992;5.896;2022-11-15T06:24:46;11.40;99.90
56240;DHT22;42154;51.992;5.896;2022-11-15T06:27:30;11.40;99.90
56240;DHT22;42154;51.992;5.896;2022-11-15T06:30:15;11.50;99.90
56240;DHT22;42154;51.992;5.896;2022-11-15T06:33:04;11.50;99.90
56240;DHT22;42154;51.992;5.896;2022-11-15T06:35:48;11.50;99.90
56240;DHT22;42154;51.992;5.896;2022-11-15T06:38:33;11.50;99.90
56240;DHT22;42154;51.992;5.896;2022-11-15T06:41:17;11.50;99.90
56240;DHT22;42154;51.992;5.896;2022-11-15T06:44:02;11.50;99.90
56240;DHT22;42154;51.992;5.896;2022-11-15T06:46:47;11.50;99.90
56240;DHT22;42154;51.992;5.896;2022-11-15T06:49:31;11.50;99.90
56240;DHT22;42154;51.992;5.896;2022-11-15T06:52:15;11.50;99.90
56240;DHT22;42154;51.992;5.896;2022-11-15T06:55:02;11.50;99.90
56240;DHT22;42154;51.992;5.896;2022-11-15T06:57:49;11.50;99.90
56240;DHT22;42154;51.992;5.896;2022-11-15T07:00:33;11.50;99.90
56240;DHT22;42154;51.992;5.896;2022-11-15T07:03:17;11.50;99.90
56240;DHT22;42154;51.992;5.896;2022-11-15T07:06:02;11.50;99.90
56240;DHT22;42154;51.992;5.896;2022-11-15T07:08:46;11.50;99.90
56240;DHT22;42154;51.992;5.896;2022-11-15T07:11:30;11.50;99.90
56240;DHT22;42154;51.992;5.896;2022-11-15T07:14:14;11.50;99.90
56240;DHT22;42154;51.992;5.896;2022-11-15T07:16:58;11.50;99.90
56240;DHT22;42154;51.992;5.896;2022-11-15T07:19:42;11.50;99.90
56240;DHT22;42154;51.992;5.896;2022-11-15T07:22:27;11.50;99.90
56240;DHT22;42154;51.992;5.896;2022-11-15T07:25:11;11.50;99.90
56240;DHT22;42154;51.992;5.896;2022-11-15T07:27:59;11.50;99.90
56240;DHT22;42154;51.992;5.896;2022-11-15T07:30:44;11.60;99.90
56240;DHT22;42154;51.992;5.896;2022-11-15T07:33:28;11.50;99.90
56240;DHT22;42154;51.992;5.896;2022-11-15T07:36:12;11.50;99.90
56240;DHT22;42154;51.992;5.896;2022-11-15T07:38:56;11.50;99.90
56240;DHT22;42154;51.992;5.896;2022-11-15T07:41:40;11.60;99.90
56240;DHT22;42154;51.992;5.896;2022-11-15T07:44:25;11.60;99.90
56240;DHT22;42154;51.992;5.896;2022-11-15T07:47:09;11.60;99.90
56240;DHT22;42154;51.992;5.896;2022-11-15T07:49:54;11.70;99.90
56240;DHT22;42154;51.992;5.896;2022-11-15T07:52:38;11.70;99.90
56240;DHT22;42154;51.992;5.896;2022-11-15T07:55:23;11.70;99.90
56240;DHT22;42154;51.992;5.896;2022-11-15T07:58:12;11.70;99.90
56240;DHT22;42154;51.992;5.896;2022-11-15T08:00:56;11.70;99.90
56240;DHT22;42154;51.992;5.896;2022-11-15T08:03:40;11.80;99.90
56240;DHT22;42154;51.992;5.896;2022-11-15T08:06:24;11.80;99.90
56240;DHT22;42154;51.992;5.896;2022-11-15T08:09:08;11.80;99.90
56240;DHT22;42154;51.992;5.896;2022-11-15T08:11:53;11.90;99.90
56240;DHT22;42154;51.992;5.896;2022-11-15T08:14:37;11.90;99.90
56240;DHT22;42154;51.992;5.896;2022-11-15T08:17:24;11.90;99.90
56240;DHT22;42154;51.992;5.896;2022-11-15T08:20:09;12.00;99.90
56240;DHT22;42154;51.992;5.896;2022-11-15T08:22:54;12.00;99.90
56240;DHT22;42154;51.992;5.896;2022-11-15T08:25:38;12.00;99.90
56240;DHT22;42154;51.992;5.896;2022-11-15T08:28:23;12.00;99.90
56240;DHT22;42154;51.992;5.896;2022-11-15T08:31:11;12.00;99.90
56240;DHT22;42154;51.992;5.896;2022-11-15T08:33:57;12.00;99.90
56240;DHT22;42154;51.992;5.896;2022-11-15T08:36:41;12.00;99.90
56240;DHT22;42154;51.992;5.896;2022-11-15T08:39:25;12.10;99.90
56240;DHT22;42154;51.992;5.896;2022-11-15T08:42:09;12.10;99.90
56240;DHT22;42154;51.992;5.896;2022-11-15T08:44:53;12.10;99.90
56240;DHT22;42154;51.992;5.896;2022-11-15T08:47:37;12.20;99.90
56240;DHT22;42154;51.992;5.896;2022-11-15T08:50:22;12.10;99.90
56240;DHT22;42154;51.992;5.896;2022-11-15T08:53:07;12.10;99.90
56240;DHT22;42154;51.992;5.896;2022-11-15T08:55:52;12.20;99.90
56240;DHT22;42154;51.992;5.896;2022-11-15T08:58:37;12.20;99.90
56240;DHT22;42154;51.992;5.896;2022-11-15T09:01:22;12.30;99.90
56240;DHT22;42154;51.992;5.896;2022-11-15T09:04:06;12.30;99.90
56240;DHT22;42154;51.992;5.896;2022-11-15T09:06:50;12.30;99.90
56240;DHT22;42154;51.992;5.896;2022-11-15T09:09:34;12.40;99.90
56240;DHT22;42154;51.992;5.896;2022-11-15T09:12:18;12.40;99.90
56240;DHT22;42154;51.992;5.896;2022-11-15T09:15:03;12.50;99.90
56240;DHT22;42154;51.992;5.896;2022-11-15T09:17:47;12.50;99.90
56240;DHT22;42154;51.992;5.896;2022-11-15T09:20:32;12.60;99.90
56240;DHT22;42154;51.992;5.896;2022-11-15T09:23:17;12.60;99.90
56240;DHT22;42154;51.992;5.896;2022-11-15T09:26:02;12.50;99.90
56240;DHT22;42154;51.992;5.896;2022-11-15T09:28:47;12.50;99.90
56240;DHT22;42154;51.992;5.896;2022-11-15T09:31:31;12.50;99.90
56240;DHT22;42154;51.992;5.896;2022-11-15T09:34:16;12.50;99.90
56240;DHT22;42154;51.992;5.896;2022-11-15T09:37:00;12.50;99.90
56240;DHT22;42154;51.992;5.896;2022-11-15T09:39:44;12.50;99.90
56240;DHT22;42154;51.992;5.896;2022-11-15T09:42:45;12.50;99.90
56240;DHT22;42154;51.992;5.896;2022-11-15T09:45:47;12.60;99.90
56240;DHT22;42154;51.992;5.896;2022-11-15T09:48:52;12.60;99.90
56240;DHT22;42154;51.992;5.896;2022-11-15T09:51:42;12.60;99.90
56240;DHT22;42154;51.992;5.896;2022-11-15T10:05:19;12.90;99.90
56240;DHT22;42154;51.992;5.896;2022-11-15T10:08:25;13.00;99.90
56240;DHT22;42154;51.992;5.896;2022-11-15T10:11:01;13.10;99.90
56240;DHT22;42154;51.992;5.896;2022-11-15T10:13:32;13.00;99.90
56240;DHT22;42154;51.992;5.896;2022-11-15T10:24:46;13.20;99.90
56240;DHT22;42154;51.992;5.896;2022-11-15T10:27:17;13.10;99.90
56240;DHT22;42154;51.992;5.896;2022-11-15T10:29:48;13.20;99.90
56240;DHT22;42154;51.992;5.896;2022-11-15T10:32:19;13.20;99.90
56240;DHT22;42154;51.992;5.896;2022-11-15T10:34:46;13.10;99.90
56240;DHT22;42154;51.992;5.896;2022-11-15T10:37:12;13.10;99.90
56240;DHT22;42154;51.992;5.896;2022-11-15T10:39:38;13.10;99.90
56240;DHT22;42154;51.992;5.896;2022-11-15T10:42:26;13.10;99.90
56240;DHT22;42154;51.992;5.896;2022-11-15T10:44:52;13.20;99.90
56240;DHT22;42154;51.992;5.896;2022-11-15T10:52:29;13.10;99.90
56240;DHT22;42154;51.992;5.896;2022-11-15T10:57:36;13.10;99.90
56240;DHT22;42154;51.992;5.896;2022-11-15T11:03:00;13.10;99.90
56240;DHT22;42154;51.992;5.896;2022-11-15T11:08:02;13.10;99.90
56240;DHT22;42154;51.992;5.896;2022-11-15T11:10:28;13.00;99.90
56240;DHT22;42154;51.992;5.896;2022-11-15T11:12:54;13.00;99.90
56240;DHT22;42154;51.992;5.896;2022-11-15T11:15:20;13.00;99.90
56240;DHT22;42154;51.992;5.896;2022-11-15T11:20:33;13.00;99.90
56240;DHT22;42154;51.992;5.896;2022-11-15T11:31:47;13.00;99.90
56240;DHT22;42154;51.992;5.896;2022-11-15T11:37:39;13.00;99.90
56240;DHT22;42154;51.992;5.896;2022-11-15T11:40:19;13.00;99.90
56240;DHT22;42154;51.992;5.896;2022-11-15T11:45:36;13.10;99.90
56240;DHT22;42154;51.992;5.896;2022-11-15T11:48:14;13.10;99.90
56240;DHT22;42154;51.992;5.896;2022-11-15T11:50:41;13.00;99.90
56240;DHT22;42154;51.992;5.896;2022-11-15T11:53:21;13.00;99.90
56240;DHT22;42154;51.992;5.896;2022-11-15T11:55:53;13.10;99.90
56240;DHT22;42154;51.992;5.896;2022-11-15T11:58:29;13.10;99.90
56240;DHT22;42154;51.992;5.896;2022-11-15T12:03:57;13.10;99.90
56240;DHT22;42154;51.992;5.896;2022-11-15T12:11:35;13.00;99.90
56240;DHT22;42154;51.992;5.896;2022-11-15T12:14:09;13.00;99.90
56240;DHT22;42154;51.992;5.896;2022-11-15T12:16:38;13.00;99.90
56240;DHT22;42154;51.992;5.896;2022-11-15T12:19:04;13.00;99.90
56240;DHT22;42154;51.992;5.896;2022-11-15T12:24:17;13.10;99.90
56240;DHT22;42154;51.992;5.896;2022-11-15T12:30:09;13.10;99.90
56240;DHT22;42154;51.992;5.896;2022-11-15T12:32:52;13.10;99.90
56240;DHT22;42154;51.992;5.896;2022-11-15T12:35:26;13.10;99.90
56240;DHT22;42154;51.992;5.896;2022-11-15T12:37:56;13.10;99.90
56240;DHT22;42154;51.992;5.896;2022-11-15T12:40:36;13.10;99.90
56240;DHT22;42154;51.992;5.896;2022-11-15T12:45:37;13.10;99.90
56240;DHT22;42154;51.992;5.896;2022-11-15T12:50:53;13.10;99.90
56240;DHT22;42154;51.992;5.896;2022-11-15T13:19:46;13.20;99.90
56240;DHT22;42154;51.992;5.896;2022-11-15T13:22:13;13.30;99.90
56240;DHT22;42154;51.992;5.896;2022-11-15T13:24:59;13.30;99.90
56240;DHT22;42154;51.992;5.896;2022-11-15T13:27:26;13.30;99.90
56240;DHT22;42154;51.992;5.896;2022-11-15T13:29:52;13.20;99.90
56240;DHT22;42154;51.992;5.896;2022-11-15T13:32:18;13.20;99.90
56240;DHT22;42154;51.992;5.896;2022-11-15T13:34:46;13.20;99.90
56240;DHT22;42154;51.992;5.896;2022-11-15T13:37:28;13.20;99.90
56240;DHT22;42154;51.992;5.896;2022-11-15T13:39:57;13.20;99.90
56240;DHT22;42154;51.992;5.896;2022-11-15T13:42:35;13.20;99.90
56240;DHT22;42154;51.992;5.896;2022-11-15T13:45:04;13.10;99.90
56240;DHT22;42154;51.992;5.896;2022-11-15T13:47:30;13.10;99.90
56240;DHT22;42154;51.992;5.896;2022-11-15T13:49:57;13.10;99.90
56240;DHT22;42154;51.992;5.896;2022-11-15T13:52:27;13.10;99.90
56240;DHT22;42154;51.992;5.896;2022-11-15T13:57:23;13.10;99.90
56240;DHT22;42154;51.992;5.896;2022-11-15T13:59:59;13.20;99.90
56240;DHT22;42154;51.992;5.896;2022-11-15T14:02:32;13.10;99.90
56240;DHT22;42154;51.992;5.896;2022-11-15T14:05:18;13.10;99.90
56240;DHT22;42154;51.992;5.896;2022-11-15T14:10:40;13.00;99.90
56240;DHT22;42154;51.992;5.896;2022-11-15T14:13:33;13.00;99.90
56240;DHT22;42154;51.992;5.896;2022-11-15T14:16:20;13.00;99.90
56240;DHT22;42154;51.992;5.896;2022-11-15T14:18:51;13.00;99.90
56240;DHT22;42154;51.992;5.896;2022-11-15T14:21:18;13.00;99.90
56240;DHT22;42154;51.992;5.896;2022-11-15T14:23:44;12.90;99.90
56240;DHT22;42154;51.992;5.896;2022-11-15T14:28:52;12.90;99.90
56240;DHT22;42154;51.992;5.896;2022-11-15T14:31:19;12.90;99.90
56240;DHT22;42154;51.992;5.896;2022-11-15T14:33:46;12.80;99.90
56240;DHT22;42154;51.992;5.896;2022-11-15T14:36:14;12.80;99.90
56240;DHT22;42154;51.992;5.896;2022-11-15T14:38:41;12.90;99.90
56240;DHT22;42154;51.992;5.896;2022-11-15T14:41:19;12.90;99.90
56240;DHT22;42154;51.992;5.896;2022-11-15T14:43:45;12.90;99.90
56240;DHT22;42154;51.992;5.896;2022-11-15T14:46:11;12.90;99.90
56240;DHT22;42154;51.992;5.896;2022-11-15T14:48:36;12.90;99.90
56240;DHT22;42154;51.992;5.896;2022-11-15T14:51:02;13.00;99.90
56240;DHT22;42154;51.992;5.896;2022-11-15T14:53:28;13.00;99.90
56240;DHT22;42154;51.992;5.896;2022-11-15T14:55:54;12.90;99.90
56240;DHT22;42154;51.992;5.896;2022-11-15T14:58:19;12.90;99.90
56240;DHT22;42154;51.992;5.896;2022-11-15T15:00:45;13.00;99.90
56240;DHT22;42154;51.992;5.896;2022-11-15T15:03:11;12.90;99.90
56240;DHT22;42154;51.992;5.896;2022-11-15T15:05:42;12.90;99.90
56240;DHT22;42154;51.992;5.896;2022-11-15T15:08:09;12.90;99.90
56240;DHT22;42154;51.992;5.896;2022-11-15T15:10:37;12.90;99.90
56240;DHT22;42154;51.992;5.896;2022-11-15T15:13:04;12.90;99.90
56240;DHT22;42154;51.992;5.896;2022-11-15T15:15:35;12.80;99.90
56240;DHT22;42154;51.992;5.896;2022-11-15T15:18:02;12.80;99.90
56240;DHT22;42154;51.992;5.896;2022-11-15T15:20:28;12.80;99.90
56240;DHT22;42154;51.992;5.896;2022-11-15T15:22:55;12.80;99.90
56240;DHT22;42154;51.992;5.896;2022-11-15T15:27:49;12.80;99.90
56240;DHT22;42154;51.992;5.896;2022-11-15T15:30:15;12.80;99.90
56240;DHT22;42154;51.992;5.896;2022-11-15T15:32:41;12.80;99.90
56240;DHT22;42154;51.992;5.896;2022-11-15T15:35:07;12.80;99.90
56240;DHT22;42154;51.992;5.896;2022-11-15T15:37:36;12.80;99.90
56240;DHT22;42154;51.992;5.896;2022-11-15T15:40:02;12.80;99.90
56240;DHT22;42154;51.992;5.896;2022-11-15T15:42:27;12.80;99.90
56240;DHT22;42154;51.992;5.896;2022-11-15T15:44:53;12.80;99.90
56240;DHT22;42154;51.992;5.896;2022-11-15T15:47:22;12.80;99.90
56240;DHT22;42154;51.992;5.896;2022-11-15T15:49:49;12.80;99.90
56240;DHT22;42154;51.992;5.896;2022-11-15T15:52:16;12.80;99.90
56240;DHT22;42154;51.992;5.896;2022-11-15T15:54:42;12.80;99.90
56240;DHT22;42154;51.992;5.896;2022-11-15T15:57:10;12.80;99.90
56240;DHT22;42154;51.992;5.896;2022-11-15T15:59:36;12.80;99.90
56240;DHT22;42154;51.992;5.896;2022-11-15T16:02:03;12.80;99.90
56240;DHT22;42154;51.992;5.896;2022-11-15T16:04:29;12.80;99.90
56240;DHT22;42154;51.992;5.896;2022-11-15T16:06:59;12.70;99.90
56240;DHT22;42154;51.992;5.896;2022-11-15T16:09:25;12.80;99.90
56240;DHT22;42154;51.992;5.896;2022-11-15T16:12:10;12.80;99.90
56240;DHT22;42154;51.992;5.896;2022-11-15T16:14:36;12.80;99.90
56240;DHT22;42154;51.992;5.896;2022-11-15T16:17:01;12.80;99.90
56240;DHT22;42154;51.992;5.896;2022-11-15T16:19:27;12.80;99.90
56240;DHT22;42154;51.992;5.896;2022-11-15T16:21:53;12.80;99.90
56240;DHT22;42154;51.992;5.896;2022-11-15T16:24:20;12.70;99.90
56240;DHT22;42154;51.992;5.896;2022-11-15T16:26:47;12.80;99.90
56240;DHT22;42154;51.992;5.896;2022-11-15T16:29:13;12.80;99.90
56240;DHT22;42154;51.992;5.896;2022-11-15T16:31:38;12.80;99.90
56240;DHT22;42154;51.992;5.896;2022-11-15T16:34:04;12.80;99.90
56240;DHT22;42154;51.992;5.896;2022-11-15T16:36:33;12.80;99.90
56240;DHT22;42154;51.992;5.896;2022-11-15T16:38:59;12.80;99.90
56240;DHT22;42154;51.992;5.896;2022-11-15T16:41:26;12.80;99.90
56240;DHT22;42154;51.992;5.896;2022-11-15T16:43:52;12.80;99.90
56240;DHT22;42154;51.992;5.896;2022-11-15T16:46:23;12.80;99.90
56240;DHT22;42154;51.992;5.896;2022-11-15T16:48:50;12.80;99.90
56240;DHT22;42154;51.992;5.896;2022-11-15T16:51:16;12.80;99.90
56240;DHT22;42154;51.992;5.896;2022-11-15T16:53:42;12.80;99.90
56240;DHT22;42154;51.992;5.896;2022-11-15T16:58:43;12.80;99.90
56240;DHT22;42154;51.992;5.896;2022-11-15T17:01:16;12.80;99.90
56240;DHT22;42154;51.992;5.896;2022-11-15T17:03:42;12.80;99.90
56240;DHT22;42154;51.992;5.896;2022-11-15T17:06:09;12.80;99.90
56240;DHT22;42154;51.992;5.896;2022-11-15T17:08:34;12.80;99.90
56240;DHT22;42154;51.992;5.896;2022-11-15T17:11:05;12.80;99.90
56240;DHT22;42154;51.992;5.896;2022-11-15T17:13:31;12.80;99.90
56240;DHT22;42154;51.992;5.896;2022-11-15T17:16:09;12.90;99.90
56240;DHT22;42154;51.992;5.896;2022-11-15T17:18:36;12.90;99.90
56240;DHT22;42154;51.992;5.896;2022-11-15T17:21:07;12.90;99.90
56240;DHT22;42154;51.992;5.896;2022-11-15T17:23:34;12.90;99.90
56240;DHT22;42154;51.992;5.896;2022-11-15T17:26:01;12.90;99.90
56240;DHT22;42154;51.992;5.896;2022-11-15T17:28:29;12.90;99.90
56240;DHT22;42154;51.992;5.896;2022-11-15T17:30:54;12.90;99.90
56240;DHT22;42154;51.992;5.896;2022-11-15T17:33:20;12.90;99.90
56240;DHT22;42154;51.992;5.896;2022-11-15T17:35:46;12.90;99.90
56240;DHT22;42154;51.992;5.896;2022-11-15T17:38:19;12.90;99.90
56240;DHT22;42154;51.992;5.896;2022-11-15T17:40:44;12.90;99.90
56240;DHT22;42154;51.992;5.896;2022-11-15T17:43:10;12.90;99.90
56240;DHT22;42154;51.992;5.896;2022-11-15T17:45:39;12.90;99.90
56240;DHT22;42154;51.992;5.896;2022-11-15T17:48:06;12.90;99.90
56240;DHT22;42154;51.992;5.896;2022-11-15T17:50:31;12.90;99.90
56240;DHT22;42154;51.992;5.896;2022-11-15T17:52:58;12.90;99.90
56240;DHT22;42154;51.992;5.896;2022-11-15T17:55:24;12.90;99.90
56240;DHT22;42154;51.992;5.896;2022-11-15T17:57:49;12.90;99.90
56240;DHT22;42154;51.992;5.896;2022-11-15T18:00:16;12.90;99.90
56240;DHT22;42154;51.992;5.896;2022-11-15T18:02:44;12.90;99.90
56240;DHT22;42154;51.992;5.896;2022-11-15T18:05:09;12.90;99.90
56240;DHT22;42154;51.992;5.896;2022-11-15T18:07:35;12.90;99.90
56240;DHT22;42154;51.992;5.896;2022-11-15T18:10:01;12.90;99.90
56240;DHT22;42154;51.992;5.896;2022-11-15T18:12:26;12.90;99.90
56240;DHT22;42154;51.992;5.896;2022-11-15T18:14:52;12.90;99.90
56240;DHT22;42154;51.992;5.896;2022-11-15T18:17:18;12.90;99.90
56240;DHT22;42154;51.992;5.896;2022-11-15T18:19:43;12.90;99.90
56240;DHT22;42154;51.992;5.896;2022-11-15T18:22:09;12.90;99.90
56240;DHT22;42154;51.992;5.896;2022-11-15T18:24:35;12.90;99.90
56240;DHT22;42154;51.992;5.896;2022-11-15T18:27:04;12.90;99.90
56240;DHT22;42154;51.992;5.896;2022-11-15T18:29:30;12.90;99.90
56240;DHT22;42154;51.992;5.896;2022-11-15T18:31:57;12.80;99.90
56240;DHT22;42154;51.992;5.896;2022-11-15T18:34:27;12.80;99.90
56240;DHT22;42154;51.992;5.896;2022-11-15T18:36:56;12.80;99.90
56240;DHT22;42154;51.992;5.896;2022-11-15T18:39:22;12.70;99.90
56240;DHT22;42154;51.992;5.896;2022-11-15T18:41:48;12.70;99.90
56240;DHT22;42154;51.992;5.896;2022-11-15T18:44:14;12.70;99.90
56240;DHT22;42154;51.992;5.896;2022-11-15T18:46:41;12.70;99.90
56240;DHT22;42154;51.992;5.896;2022-11-15T18:49:09;12.70;99.90
56240;DHT22;42154;51.992;5.896;2022-11-15T18:51:35;12.70;99.90
56240;DHT22;42154;51.992;5.896;2022-11-15T18:54:08;12.70;99.90
56240;DHT22;42154;51.992;5.896;2022-11-15T18:56:35;12.70;99.90
56240;DHT22;42154;51.992;5.896;2022-11-15T18:59:01;12.60;99.90
56240;DHT22;42154;51.992;5.896;2022-11-15T19:01:33;12.60;99.90
56240;DHT22;42154;51.992;5.896;2022-11-15T19:04:06;12.60;99.90